aviador You're here:

RJGG Decoded Metar

NAGOYA/CHUBU in JAPAN
Report Time2018-06-18 19:00:00
UTC Time2018-06-18 19:14:50
Flight Rules vfr VFR
Wind050° at 04 kt
W.Decomp.*RWY 36: 2.2 kt HW 3.4 kt RCW
W.Rank050° ranks 32
Current wind is below 050° avg. (4.6)
Visibility9999 m
Phenomena:N/A
Clouds:Few 020 Hf
Expected CloudBase > 800 ft AGL from Temp-Dew spread
CeilingNone
Temp20°C (ISA +5)
Dew Point18°C (88% RH)
QNH1007 hPa
Density Alt1,079 ft
Elevation16 ft
Report Wrong Elevation
Raw Report
RJGG 181900Z 05004KT 9999 FEW020 SCT/// 20/18 Q1007 NOSIG=

Extra information for RJGG:More info

Metar Taf Metar & Taf Last 4 Metars F.Rules Stats Wind Profile Meteogram Temp Stats Airport Information Weather charts Add Link Nearby VenuesMetar ALERT Operation Metar Decoded Social comments